Hiko, Nevada
Current Conditions -  °F | °C
As of 3:58 AM on Thursday 29 Jan 2015 (Local Time) from KINS Reporting Station
Broken Clouds Broken Clouds  
Wind Chill: 47°   Ceiling: 13000
Heat Index: 47°   Visibility: 10mi
Dew Point: 39°   Wind: 0mph
Humidity: 74%   Direction: NA
Pressure: 30.18"   Gusts: NA
Location:  37.6°N, 115.23°W
Report Text: KINS 291158Z AUTO 00000KT 10SM BKN130 09/04 A3018 RMK AO2 SLP199 T00850041 10102 20084 55004
Loading
Personal Weather Stations






























Interactive Weather Map New forecast layout! Learn more

10-Day Weather Forecast

Advertisements
Track Severe Weather on mobile